Time;durP1;ratioP1;P1;durP2;ratioP2;P2;SDS_P1;SDS_P2;PMS_P1;PMS_P2;Temp;Humidity;BMP_temperature;BMP_pressure;BME280_temperature;BME280_humidity;BME280_pressure;Samples;Min_cycle;Max_cycle;Signal;HPM_P1;HPM_P2
2021/11/14 00:01:12;;;;;;;1.73;1.08;;;11.70;88.50;;;;;;5031369;28;20499;-60
2021/11/14 00:03:40;;;;;;;2.60;1.40;;;11.70;88.70;;;;;;5031535;28;20568;-59
2021/11/14 00:06:07;;;;;;;3.80;1.40;;;11.70;88.90;;;;;;5031517;28;20092;-59
2021/11/14 00:08:35;;;;;;;2.22;1.20;;;11.70;89.00;;;;;;5031609;28;20057;-59
2021/11/14 00:11:10;;;;;;;2.53;1.42;;;11.70;89.10;;;;;;5030920;28;20452;-59
2021/11/14 00:13:40;;;;;;;2.17;1.15;;;11.70;89.20;;;;;;5013193;28;20292;-59
2021/11/14 00:16:10;;;;;;;4.15;1.35;;;11.70;89.20;;;;;;5029283;28;20041;-60
2021/11/14 00:18:40;;;;;;;4.93;1.20;;;11.70;89.30;;;;;;5029639;28;20060;-60
2021/11/14 00:21:08;;;;;;;5.82;1.75;;;11.70;89.30;;;;;;5028254;28;20084;-61
2021/11/14 00:23:35;;;;;;;4.97;1.35;;;11.80;89.60;;;;;;5029486;28;20049;-60
2021/11/14 00:26:02;;;;;;;4.63;1.70;;;11.80;89.30;;;;;;5023476;28;20046;-60
2021/11/14 00:28:29;;;;;;;3.58;1.10;;;11.80;89.40;;;;;;5019576;28;20041;-59
2021/11/14 00:30:56;;;;;;;5.63;1.33;;;11.80;89.40;;;;;;5027957;28;20161;-59
2021/11/14 00:33:23;;;;;;;2.42;0.90;;;11.70;89.30;;;;;;5028585;28;20585;-59
2021/11/14 00:35:52;;;;;;;5.55;1.25;;;11.80;89.30;;;;;;5030901;28;20045;-60
2021/11/14 00:38:21;;;;;;;3.47;1.20;;;11.80;89.70;;;;;;5022698;28;20073;-60
2021/11/14 00:40:48;;;;;;;2.33;0.88;;;11.80;89.40;;;;;;5019217;28;20050;-59
2021/11/14 00:43:15;;;;;;;2.75;1.10;;;11.80;89.40;;;;;;5030577;28;20077;-59
2021/11/14 00:45:44;;;;;;;4.35;1.27;;;11.80;89.50;;;;;;5010645;28;20100;-60
2021/11/14 00:48:12;;;;;;;4.93;1.13;;;11.80;89.60;;;;;;5025442;28;20071;-59
2021/11/14 00:50:43;;;;;;;3.50;1.45;;;11.80;89.60;;;;;;5029491;28;20104;-60
2021/11/14 00:53:14;;;;;;;4.50;1.40;;;11.90;89.90;;;;;;5013321;28;20052;-59
2021/11/14 00:55:41;;;;;;;5.63;1.33;;;11.80;90.00;;;;;;5028519;28;20095;-59
2021/11/14 00:58:08;;;;;;;3.05;1.15;;;11.80;90.10;;;;;;5030414;28;20123;-58
2021/11/14 01:00:35;;;;;;;1.77;0.85;;;11.80;90.00;;;;;;5028653;28;20054;-60
2021/11/14 01:03:02;;;;;;;7.13;1.17;;;11.80;90.00;;;;;;5029979;28;20432;-58
2021/11/14 01:05:30;;;;;;;7.22;1.67;;;11.80;90.00;;;;;;5026715;28;20156;-60
2021/11/14 01:07:56;;;;;;;7.47;1.65;;;11.70;90.00;;;;;;5030000;28;20041;-60
2021/11/14 01:10:27;;;;;;;6.00;1.63;;;11.80;90.10;;;;;;5029159;28;20049;-58
2021/11/14 01:12:54;;;;;;;6.32;2.38;;;11.80;90.20;;;;;;5029877;28;20472;-59
2021/11/14 01:15:21;;;;;;;6.55;1.77;;;11.80;90.20;;;;;;5019314;28;20084;-60
2021/11/14 01:17:49;;;;;;;4.00;1.85;;;11.80;90.40;;;;;;5029763;28;20045;-60
2021/11/14 01:20:27;;;;;;;7.93;2.25;;;11.70;90.50;;;;;;5028968;28;20149;-59
2021/11/14 01:22:55;;;;;;;6.05;2.70;;;11.70;90.80;;;;;;5028275;28;20136;-59
2021/11/14 01:25:21;;;;;;;4.78;1.83;;;11.60;90.70;;;;;;5025181;28;20045;-60
2021/11/14 01:27:48;;;;;;;6.28;1.90;;;11.60;90.80;;;;;;5010113;28;20531;-58
2021/11/14 01:30:19;;;;;;;7.75;1.45;;;11.60;90.80;;;;;;5029657;28;20041;-60
2021/11/14 01:32:46;;;;;;;7.63;1.45;;;11.70;90.80;;;;;;5028544;28;20053;-59
2021/11/14 01:35:13;;;;;;;6.13;1.73;;;11.70;90.80;;;;;;5029413;28;20111;-59
2021/11/14 01:37:42;;;;;;;6.53;1.70;;;11.60;90.80;;;;;;5030021;28;20053;-58
2021/11/14 01:40:11;;;;;;;5.53;1.35;;;11.70;90.80;;;;;;5028300;28;20054;-59
2021/11/14 01:42:39;;;;;;;2.70;1.35;;;11.60;90.80;;;;;;5025108;28;20054;-59
2021/11/14 01:45:06;;;;;;;5.97;1.70;;;11.70;90.90;;;;;;5024425;28;20068;-59
2021/11/14 01:47:33;;;;;;;7.63;1.50;;;11.70;90.90;;;;;;5029821;28;20049;-58
2021/11/14 01:50:00;;;;;;;5.00;1.30;;;11.60;90.90;;;;;;5029217;28;20546;-58
2021/11/14 01:52:29;;;;;;;2.53;1.30;;;11.60;91.00;;;;;;5028337;28;20145;-59
2021/11/14 01:54:56;;;;;;;1.88;1.05;;;11.60;91.10;;;;;;5028384;28;20100;-61
2021/11/14 01:57:23;;;;;;;6.10;1.73;;;11.60;91.00;;;;;;5024723;28;20131;-60
2021/11/14 01:59:49;;;;;;;8.82;1.75;;;11.60;91.10;;;;;;5029003;28;20150;-59
2021/11/14 02:02:16;;;;;;;6.80;1.45;;;11.60;91.40;;;;;;5029314;28;20049;-59
2021/11/14 02:04:43;;;;;;;6.82;1.67;;;11.60;91.20;;;;;;5028927;28;20129;-58
2021/11/14 02:07:14;;;;;;;6.80;2.03;;;11.60;91.30;;;;;;5029284;28;20495;-59
2021/11/14 02:09:41;;;;;;;5.60;1.63;;;11.60;91.30;;;;;;5028958;28;20091;-59
2021/11/14 02:12:08;;;;;;;3.78;1.10;;;11.50;91.30;;;;;;5028018;28;20085;-59
2021/11/14 02:14:35;;;;;;;4.63;1.33;;;11.50;91.30;;;;;;5029222;28;20076;-59
2021/11/14 02:17:03;;;;;;;6.03;1.42;;;11.60;91.40;;;;;;5027832;28;20441;-58
2021/11/14 02:19:30;;;;;;;7.63;1.70;;;11.50;91.50;;;;;;5027805;28;20049;-58
2021/11/14 02:21:56;;;;;;;4.47;1.40;;;11.50;91.50;;;;;;5028277;28;20080;-58
2021/11/14 02:24:23;;;;;;;5.68;1.30;;;11.60;91.50;;;;;;5029033;28;20053;-59
2021/11/14 02:26:50;;;;;;;6.75;1.52;;;11.50;91.40;;;;;;5025553;28;20471;-59
2021/11/14 02:29:17;;;;;;;4.50;1.40;;;11.50;91.50;;;;;;5028851;28;20093;-59
2021/11/14 02:31:44;;;;;;;6.00;1.48;;;11.50;91.50;;;;;;5028272;28;20144;-58
2021/11/14 02:34:11;;;;;;;5.40;1.60;;;11.50;91.50;;;;;;5028512;28;20089;-59
2021/11/14 02:36:38;;;;;;;6.15;1.85;;;11.50;91.60;;;;;;5028550;28;20103;-59
2021/11/14 02:39:05;;;;;;;4.22;1.15;;;11.50;91.70;;;;;;5028509;28;20157;-59
2021/11/14 02:41:32;;;;;;;10.90;1.40;;;11.50;91.70;;;;;;5024669;28;20081;-59
2021/11/14 02:43:59;;;;;;;2.88;1.08;;;11.50;91.70;;;;;;5023697;28;20497;-59
2021/11/14 02:46:26;;;;;;;3.55;1.30;;;11.50;91.70;;;;;;5017117;28;20136;-59
2021/11/14 02:48:53;;;;;;;4.68;1.40;;;11.50;91.70;;;;;;5027033;28;20083;-59
2021/11/14 02:51:22;;;;;;;6.65;1.25;;;11.50;91.70;;;;;;5028149;28;20075;-60
2021/11/14 02:53:49;;;;;;;7.95;1.55;;;11.50;91.70;;;;;;5009951;28;20054;-58
2021/11/14 02:56:16;;;;;;;9.23;2.95;;;11.50;91.70;;;;;;5013035;28;20057;-59
2021/11/14 02:58:46;;;;;;;2.60;1.17;;;11.60;91.60;;;;;;5027936;28;20045;-59
2021/11/14 03:01:14;;;;;;;2.30;1.00;;;11.60;91.60;;;;;;5027952;28;20698;-59
2021/11/14 03:03:42;;;;;;;2.80;1.10;;;11.50;91.60;;;;;;5027837;28;20059;-58
2021/11/14 03:06:10;;;;;;;5.18;1.30;;;11.50;91.70;;;;;;5026650;28;20053;-59
2021/11/14 03:08:36;;;;;;;5.65;1.48;;;11.50;91.60;;;;;;5028076;28;20128;-59
2021/11/14 03:11:04;;;;;;;11.27;1.73;;;11.50;91.70;;;;;;5028063;28;20045;-59
2021/11/14 03:13:31;;;;;;;8.43;1.30;;;11.60;91.70;;;;;;5026562;28;20467;-59
2021/11/14 03:16:00;;;;;;;6.43;1.67;;;11.50;91.80;;;;;;5027656;28;20064;-61
2021/11/14 03:18:26;;;;;;;3.67;1.40;;;11.50;91.90;;;;;;5026516;28;20045;-60
2021/11/14 03:20:54;;;;;;;3.42;1.25;;;11.50;91.90;;;;;;5027683;28;20058;-59
2021/11/14 03:23:22;;;;;;;7.68;1.67;;;11.50;91.90;;;;;;5026453;28;20276;-59
2021/11/14 03:25:50;;;;;;;8.48;1.77;;;11.60;91.90;;;;;;5027680;28;20084;-59
2021/11/14 03:28:17;;;;;;;7.53;2.08;;;11.50;92.00;;;;;;5027502;28;20053;-59
2021/11/14 03:30:43;;;;;;;5.75;1.20;;;11.50;92.10;;;;;;5027536;28;20073;-59
2021/11/14 03:33:12;;;;;;;8.15;2.22;;;11.60;92.30;;;;;;5027436;28;20049;-59
2021/11/14 03:35:50;;;;;;;4.97;1.38;;;11.50;92.40;;;;;;5026483;28;20092;-59
2021/11/14 03:38:19;;;;;;;8.00;2.53;;;11.50;92.60;;;;;;5026342;28;20053;-59
2021/11/14 03:40:46;;;;;;;9.10;2.10;;;11.40;92.70;;;;;;5027118;28;20042;-59
2021/11/14 03:43:12;;;;;;;6.60;2.17;;;11.20;93.00;;;;;;5022244;28;20113;-58
2021/11/14 03:45:39;;;;;;;11.75;2.08;;;11.20;93.20;;;;;;5017237;28;20497;-59
2021/11/14 03:48:06;;;;;;;12.07;2.05;;;11.20;93.20;;;;;;5019724;28;20072;-59
2021/11/14 03:50:33;;;;;;;10.05;1.50;;;11.20;93.30;;;;;;5017942;28;20107;-59
2021/11/14 03:53:00;;;;;;;5.10;1.67;;;11.10;93.40;;;;;;5022118;28;20099;-58
2021/11/14 03:55:27;;;;;;;2.50;1.30;;;11.20;93.50;;;;;;5027113;28;20042;-59
2021/11/14 03:57:54;;;;;;;10.05;2.13;;;11.20;93.60;;;;;;5018818;28;20115;-58
2021/11/14 04:00:23;;;;;;;6.05;1.63;;;11.10;93.70;;;;;;5026923;28;20046;-58
2021/11/14 04:02:50;;;;;;;4.00;1.80;;;11.20;93.80;;;;;;5024974;28;20504;-59
2021/11/14 04:05:18;;;;;;;9.68;2.28;;;11.20;93.80;;;;;;5019207;28;20564;-58
2021/11/14 04:07:45;;;;;;;8.82;2.60;;;11.20;93.80;;;;;;5017743;28;20099;-59
2021/11/14 04:10:12;;;;;;;3.40;1.80;;;11.10;93.90;;;;;;5024867;28;20064;-59
2021/11/14 04:12:39;;;;;;;6.32;2.30;;;11.10;94.10;;;;;;5019122;28;20488;-59
2021/11/14 04:15:07;;;;;;;10.65;3.00;;;11.10;94.10;;;;;;5026949;28;20081;-59
2021/11/14 04:17:34;;;;;;;9.60;3.50;;;11.10;94.20;;;;;;5017907;28;20096;-59
2021/11/14 04:20:03;;;;;;;6.68;2.53;;;11.10;94.20;;;;;;5024894;28;20041;-59
2021/11/14 04:22:30;;;;;;;8.57;2.58;;;11.10;94.20;;;;;;5026506;28;20081;-59
2021/11/14 04:24:56;;;;;;;12.30;4.07;;;11.10;94.20;;;;;;5018848;28;20092;-58
2021/11/14 04:27:23;;;;;;;7.30;2.35;;;11.20;94.20;;;;;;5017766;28;20097;-59
2021/11/14 04:29:50;;;;;;;8.52;2.58;;;11.10;94.10;;;;;;5021778;28;20069;-59
2021/11/14 04:32:17;;;;;;;6.80;2.53;;;11.10;94.20;;;;;;5021179;28;20049;-59
2021/11/14 04:34:44;;;;;;;5.90;2.85;;;11.10;94.30;;;;;;5019581;28;20049;-59
2021/11/14 04:37:11;;;;;;;14.75;2.65;;;11.10;94.20;;;;;;5024310;28;20053;-58
2021/11/14 04:39:38;;;;;;;11.18;3.60;;;11.30;94.30;;;;;;5026239;28;20041;-58
2021/11/14 04:42:07;;;;;;;4.65;2.50;;;11.20;94.40;;;;;;5029829;28;20129;-58
2021/11/14 04:44:35;;;;;;;7.88;2.78;;;11.10;94.30;;;;;;5003809;28;20050;-59
2021/11/14 04:47:02;;;;;;;8.95;3.08;;;11.20;94.30;;;;;;5022048;28;20492;-58
2021/11/14 04:49:29;;;;;;;11.25;3.25;;;11.20;94.40;;;;;;5019099;28;20060;-59
2021/11/14 04:51:56;;;;;;;11.63;3.13;;;11.20;94.30;;;;;;5028316;28;20489;-59
2021/11/14 04:54:23;;;;;;;7.35;3.13;;;11.10;94.40;;;;;;5022521;28;20512;-60
2021/11/14 04:56:50;;;;;;;7.53;3.70;;;11.10;94.60;;;;;;5020055;28;20108;-59
2021/11/14 04:59:17;;;;;;;9.10;2.97;;;11.10;94.60;;;;;;5021960;28;20057;-59
2021/11/14 05:01:44;;;;;;;10.38;3.60;;;11.10;94.60;;;;;;5023440;28;20038;-59
2021/11/14 05:04:11;;;;;;;6.82;3.63;;;11.10;94.60;;;;;;5018412;28;20049;-57
2021/11/14 05:06:38;;;;;;;8.75;2.70;;;11.10;94.60;;;;;;5017595;28;20053;-58
2021/11/14 05:09:05;;;;;;;13.00;3.80;;;11.10;94.60;;;;;;5025592;28;20107;-59
2021/11/14 05:11:32;;;;;;;9.45;3.58;;;11.10;94.60;;;;;;5018493;28;20050;-59
2021/11/14 05:13:58;;;;;;;8.63;3.80;;;11.20;94.60;;;;;;5025689;28;20084;-59
2021/11/14 05:16:25;;;;;;;8.25;3.25;;;11.20;94.60;;;;;;5021388;28;20107;-59
2021/11/14 05:18:52;;;;;;;9.75;3.40;;;11.20;94.60;;;;;;5023312;28;20132;-59
2021/11/14 05:21:19;;;;;;;6.78;3.30;;;11.20;94.60;;;;;;5024616;28;20128;-59
2021/11/14 05:23:45;;;;;;;5.43;3.17;;;11.10;94.60;;;;;;5029495;28;20080;-59
2021/11/14 05:26:12;;;;;;;5.28;3.28;;;11.20;94.60;;;;;;5021728;28;20045;-59
2021/11/14 05:28:39;;;;;;;13.68;4.85;;;11.20;94.60;;;;;;5014517;28;20060;-59
2021/11/14 05:31:06;;;;;;;10.02;3.78;;;11.10;94.60;;;;;;5019945;28;20451;-59
2021/11/14 05:33:33;;;;;;;13.07;3.83;;;11.20;94.70;;;;;;5029177;28;20076;-58
2021/11/14 05:36:00;;;;;;;14.65;3.80;;;11.20;94.50;;;;;;5021314;28;20045;-58
2021/11/14 05:38:27;;;;;;;9.85;4.03;;;11.30;94.60;;;;;;5020001;28;20045;-59
2021/11/14 05:40:54;;;;;;;8.60;3.83;;;11.30;94.60;;;;;;5018207;28;20088;-59
2021/11/14 05:43:21;;;;;;;9.27;3.53;;;11.30;94.60;;;;;;5025623;28;20092;-61
2021/11/14 05:45:48;;;;;;;6.82;3.55;;;11.30;94.60;;;;;;5013502;28;20093;-59
2021/11/14 05:48:15;;;;;;;8.07;2.97;;;11.30;94.70;;;;;;5029437;28;20136;-58
2021/11/14 05:50:42;;;;;;;10.38;3.72;;;11.30;94.70;;;;;;5021377;28;20057;-58
2021/11/14 05:53:09;;;;;;;7.05;3.70;;;11.20;94.70;;;;;;5028131;28;20088;-58
2021/11/14 05:55:36;;;;;;;12.13;4.93;;;11.20;94.70;;;;;;5019635;28;20045;-59
2021/11/14 05:58:10;;;;;;;6.65;3.60;;;11.20;94.90;;;;;;5024080;28;20082;-59
2021/11/14 06:06:22;;;;;;;9.13;3.88;;;11.30;94.80;;;;;;4998808;28;20559;-59
2021/11/14 06:08:49;;;;;;;9.23;4.32;;;11.30;94.80;;;;;;5001708;28;20049;-59
2021/11/14 06:11:16;;;;;;;10.55;4.22;;;11.30;94.80;;;;;;5011408;28;20053;-59
2021/11/14 06:13:43;;;;;;;12.02;4.75;;;11.30;94.80;;;;;;5026423;28;20045;-58
2021/11/14 06:16:09;;;;;;;10.65;4.43;;;11.30;94.80;;;;;;5024296;28;20116;-58
2021/11/14 06:18:36;;;;;;;9.38;4.55;;;11.30;94.80;;;;;;5023752;28;20041;-59
2021/11/14 06:21:03;;;;;;;8.27;5.30;;;11.30;94.90;;;;;;5018322;28;20520;-59
2021/11/14 06:23:30;;;;;;;16.60;5.40;;;11.30;94.90;;;;;;5023815;28;20153;-60
2021/11/14 06:25:58;;;;;;;12.02;4.85;;;11.30;94.90;;;;;;5012443;28;20492;-58
2021/11/14 06:28:25;;;;;;;14.02;5.63;;;11.30;94.90;;;;;;5020279;28;20491;-58
2021/11/14 06:30:51;;;;;;;13.98;4.78;;;11.30;94.90;;;;;;5026322;28;20480;-59
2021/11/14 06:33:18;;;;;;;12.20;5.30;;;11.30;94.90;;;;;;5020044;28;20203;-59
2021/11/14 06:35:45;;;;;;;13.15;5.70;;;11.30;95.00;;;;;;5019778;28;20058;-60
2021/11/14 06:38:12;;;;;;;16.15;5.93;;;11.30;94.90;;;;;;5020072;28;20468;-59
2021/11/14 06:40:39;;;;;;;18.48;5.97;;;11.30;94.90;;;;;;5026810;28;20452;-59
2021/11/14 06:43:06;;;;;;;16.92;5.70;;;11.30;94.90;;;;;;5027378;28;20064;-59
2021/11/14 06:45:32;;;;;;;13.52;5.88;;;11.30;95.00;;;;;;5024312;28;20038;-60
2021/11/14 06:47:59;;;;;;;12.80;5.35;;;11.30;95.10;;;;;;5026332;28;20076;-60
2021/11/14 06:50:26;;;;;;;16.23;5.95;;;11.30;95.00;;;;;;5019935;28;20500;-61
2021/11/14 06:52:53;;;;;;;18.05;5.90;;;11.40;95.00;;;;;;5018531;28;20069;-60
2021/11/14 06:55:20;;;;;;;15.98;5.93;;;11.40;95.00;;;;;;5027499;28;20049;-60
2021/11/14 06:57:47;;;;;;;19.52;6.00;;;11.40;95.00;;;;;;5026847;28;20064;-58
2021/11/14 07:00:16;;;;;;;24.70;7.60;;;11.40;95.00;;;;;;5027620;28;20049;-59
2021/11/14 07:02:43;;;;;;;16.75;6.35;;;11.40;95.00;;;;;;5017735;28;20471;-60
2021/11/14 07:05:10;;;;;;;18.83;6.35;;;11.40;95.20;;;;;;5025369;28;20136;-59
2021/11/14 07:07:37;;;;;;;15.93;7.15;;;11.40;95.20;;;;;;5022342;28;20049;-60
2021/11/14 07:10:04;;;;;;;14.88;6.88;;;11.40;95.20;;;;;;5026934;28;20559;-60
2021/11/14 07:12:31;;;;;;;23.45;7.00;;;11.30;95.10;;;;;;5020891;28;20041;-59
2021/11/14 07:14:58;;;;;;;13.27;5.57;;;11.40;95.20;;;;;;5026455;28;20508;-59
2021/11/14 07:17:26;;;;;;;18.08;8.07;;;11.40;95.10;;;;;;5020464;28;20061;-60
2021/11/14 07:19:53;;;;;;;18.83;6.82;;;11.40;95.20;;;;;;5027214;28;20103;-60
2021/11/14 07:22:20;;;;;;;15.25;5.80;;;11.30;95.30;;;;;;5022090;28;20312;-60
2021/11/14 07:24:47;;;;;;;18.15;6.95;;;11.30;95.30;;;;;;5027126;28;20501;-59
2021/11/14 07:27:14;;;;;;;20.98;7.63;;;11.30;95.20;;;;;;5023663;28;20055;-58
2021/11/14 07:29:41;;;;;;;14.68;6.05;;;11.40;95.30;;;;;;5016563;28;20497;-59
2021/11/14 07:32:08;;;;;;;13.13;5.30;;;11.40;95.30;;;;;;5018513;28;20045;-59
2021/11/14 07:34:35;;;;;;;14.48;6.10;;;11.40;95.30;;;;;;5018687;28;20083;-59
2021/11/14 07:37:02;;;;;;;11.32;5.55;;;11.50;95.20;;;;;;5026745;28;20049;-60
2021/11/14 07:39:33;;;;;;;11.35;5.28;;;11.40;95.20;;;;;;5026837;28;20056;-59
2021/11/14 07:41:59;;;;;;;11.77;5.45;;;11.50;95.30;;;;;;5026490;28;20053;-59
2021/11/14 07:44:26;;;;;;;11.90;5.20;;;11.40;95.30;;;;;;5026553;28;20092;-59
2021/11/14 07:46:53;;;;;;;13.05;4.38;;;11.50;95.30;;;;;;5021519;28;20052;-59
2021/11/14 07:49:20;;;;;;;10.07;4.03;;;11.50;95.30;;;;;;5021929;28;20050;-59
2021/11/14 07:51:47;;;;;;;10.35;4.82;;;11.50;95.20;;;;;;5018105;28;20635;-58
2021/11/14 07:54:14;;;;;;;15.25;4.50;;;11.50;95.20;;;;;;5020297;28;20049;-59
2021/11/14 07:56:41;;;;;;;12.43;4.45;;;11.60;95.20;;;;;;5023476;28;20501;-59
2021/11/14 07:59:07;;;;;;;19.30;4.53;;;11.60;95.20;;;;;;5026937;28;20052;-58
2021/11/14 08:01:34;;;;;;;10.10;4.20;;;11.60;95.20;;;;;;5026356;28;20077;-59
2021/11/14 08:04:01;;;;;;;15.18;3.92;;;11.60;95.30;;;;;;5025662;28;20080;-59
2021/11/14 08:06:28;;;;;;;9.75;4.70;;;11.60;95.50;;;;;;5026542;28;20548;-59
2021/11/14 08:08:55;;;;;;;11.77;5.93;;;11.60;95.30;;;;;;5026541;28;20539;-59
2021/11/14 08:11:22;;;;;;;10.40;4.03;;;11.60;95.20;;;;;;5030639;28;20041;-59
2021/11/14 08:13:49;;;;;;;9.88;4.47;;;11.60;95.20;;;;;;5029975;28;20045;-60
2021/11/14 08:16:16;;;;;;;7.53;4.15;;;11.60;95.20;;;;;;5023086;28;20504;-59
2021/11/14 08:18:43;;;;;;;7.60;3.92;;;11.70;95.30;;;;;;5030956;28;20432;-59
2021/11/14 08:21:10;;;;;;;9.25;4.55;;;11.70;95.30;;;;;;5014704;28;20073;-59
2021/11/14 08:23:36;;;;;;;9.48;4.57;;;11.70;95.30;;;;;;5022462;28;20054;-60
2021/11/14 08:26:03;;;;;;;8.85;4.25;;;11.60;95.30;;;;;;5030383;28;20347;-60
2021/11/14 08:28:30;;;;;;;10.45;4.50;;;11.60;95.40;;;;;;5026213;28;21660;-59
2021/11/14 08:30:57;;;;;;;9.57;4.63;;;11.60;95.40;;;;;;5021423;28;20073;-58
2021/11/14 08:33:36;;;;;;;13.90;5.65;;;11.70;95.40;;;;;;4680016;28;10000400;-59
2021/11/14 08:36:03;;;;;;;10.48;5.18;;;11.70;95.40;;;;;;5019762;28;20156;-60
2021/11/14 08:38:30;;;;;;;13.73;5.55;;;11.70;95.40;;;;;;5024531;28;20477;-59
2021/11/14 08:40:56;;;;;;;12.27;5.40;;;11.70;95.40;;;;;;5027198;28;20084;-60
2021/11/14 08:43:23;;;;;;;11.50;5.90;;;11.70;95.50;;;;;;5024697;28;20045;-60
2021/11/14 08:45:50;;;;;;;15.05;6.97;;;11.70;95.60;;;;;;5027030;28;20084;-58
2021/11/14 08:48:21;;;;;;;12.02;6.40;;;11.70;95.60;;;;;;5025629;28;20252;-59
2021/11/14 08:50:48;;;;;;;10.52;5.32;;;11.70;95.60;;;;;;5020512;28;20046;-60
2021/11/14 08:53:15;;;;;;;19.73;8.38;;;11.80;95.60;;;;;;5016886;28;20440;-58
2021/11/14 08:55:42;;;;;;;14.90;7.40;;;11.80;95.50;;;;;;5016846;28;20042;-59
2021/11/14 08:58:27;;;;;;;15.13;6.78;;;11.80;95.50;;;;;;5011411;28;20136;-57
2021/11/14 09:00:54;;;;;;;12.15;6.40;;;11.90;95.50;;;;;;5022674;28;20153;-57
2021/11/14 09:03:21;;;;;;;16.70;6.88;;;11.90;95.60;;;;;;5021120;28;20045;-58
2021/11/14 09:05:48;;;;;;;17.55;8.05;;;11.90;95.60;;;;;;5011606;28;20551;-56
2021/11/14 09:08:15;;;;;;;17.05;7.60;;;11.90;95.60;;;;;;5015957;28;20077;-56
2021/11/14 09:10:44;;;;;;;18.45;7.38;;;11.90;95.60;;;;;;5023667;28;20069;-57
2021/11/14 09:13:13;;;;;;;18.70;7.07;;;12.00;95.60;;;;;;5025128;28;20497;-58
2021/11/14 09:15:40;;;;;;;19.58;8.93;;;12.00;95.60;;;;;;5024565;28;20144;-57
2021/11/14 09:18:16;;;;;;;18.57;8.33;;;12.00;95.60;;;;;;5026524;28;20433;-58
2021/11/14 09:20:43;;;;;;;14.82;8.48;;;12.00;95.60;;;;;;5024366;28;20045;-58
2021/11/14 09:23:10;;;;;;;21.77;7.95;;;12.00;95.70;;;;;;5025488;28;20057;-56
2021/11/14 09:25:40;;;;;;;17.55;8.23;;;12.00;95.70;;;;;;5024635;28;20045;-60
2021/11/14 09:28:08;;;;;;;17.48;8.52;;;12.00;95.70;;;;;;5023312;28;20712;-59
2021/11/14 09:30:35;;;;;;;17.10;8.77;;;12.00;95.70;;;;;;5025365;28;20052;-57
2021/11/14 09:33:03;;;;;;;17.00;8.13;;;12.10;95.90;;;;;;5021147;28;20512;-58
2021/11/14 09:35:30;;;;;;;17.58;9.30;;;12.10;95.70;;;;;;5025046;28;20095;-56
2021/11/14 09:37:56;;;;;;;20.98;8.23;;;12.10;95.70;;;;;;5023134;28;20163;-56
2021/11/14 09:40:23;;;;;;;18.50;8.48;;;12.20;95.70;;;;;;5024529;28;20042;-55
2021/11/14 09:42:50;;;;;;;16.80;8.55;;;12.20;95.60;;;;;;5024541;28;20136;-59
2021/11/14 09:45:17;;;;;;;19.33;8.95;;;12.30;95.60;;;;;;5023619;28;20164;-57
2021/11/14 09:47:44;;;;;;;17.35;8.27;;;12.30;95.60;;;;;;5022231;28;20042;-58
2021/11/14 09:50:11;;;;;;;23.25;8.98;;;12.30;95.50;;;;;;5020183;28;20053;-57
2021/11/14 09:52:38;;;;;;;17.30;8.77;;;12.30;95.60;;;;;;5024269;28;20098;-58
2021/11/14 09:55:07;;;;;;;25.02;9.50;;;12.30;95.50;;;;;;5022724;28;20049;-58
2021/11/14 09:57:39;;;;;;;22.25;8.38;;;12.40;95.50;;;;;;5023188;28;20571;-58
2021/11/14 10:00:07;;;;;;;16.48;8.50;;;12.40;95.50;;;;;;4989204;28;20085;-59
2021/11/14 10:02:36;;;;;;;18.02;8.43;;;12.40;95.50;;;;;;5017703;28;20818;-58
2021/11/14 10:05:04;;;;;;;19.52;8.13;;;12.40;95.40;;;;;;5023678;28;20080;-60
2021/11/14 10:07:31;;;;;;;18.55;7.32;;;12.40;95.30;;;;;;5021352;28;20148;-58
2021/11/14 10:09:59;;;;;;;18.42;8.38;;;12.50;95.30;;;;;;5020012;28;20064;-61
2021/11/14 10:12:32;;;;;;;15.93;7.03;;;12.50;95.30;;;;;;5022320;28;20104;-59
2021/11/14 10:15:10;;;;;;;15.95;7.22;;;12.50;95.30;;;;;;5023659;28;20049;-58
2021/11/14 10:17:38;;;;;;;18.98;7.95;;;12.50;95.30;;;;;;5022826;28;20075;-58
2021/11/14 10:20:10;;;;;;;17.80;7.55;;;12.60;95.20;;;;;;5023718;28;20053;-57
2021/11/14 10:22:39;;;;;;;11.82;7.57;;;12.60;95.30;;;;;;5021422;28;20126;-58
2021/11/14 10:25:07;;;;;;;24.25;7.78;;;12.70;95.20;;;;;;5015831;28;20053;-58
2021/11/14 10:27:33;;;;;;;15.18;6.20;;;12.80;95.10;;;;;;5025132;28;20128;-57
2021/11/14 10:30:00;;;;;;;19.73;7.50;;;12.80;95.10;;;;;;5025090;28;20066;-57
2021/11/14 10:32:27;;;;;;;16.65;7.30;;;12.90;95.10;;;;;;5019697;28;20076;-57
2021/11/14 10:34:59;;;;;;;17.88;8.00;;;12.90;95.00;;;;;;5017261;28;20081;-58
2021/11/14 10:37:46;;;;;;;16.88;7.35;;;12.90;95.00;;;;;;5023200;28;20041;-57
2021/11/14 10:40:21;;;;;;;16.80;6.60;;;13.10;95.00;;;;;;5017490;28;20112;-57
2021/11/14 10:42:55;;;;;;;19.95;7.78;;;13.10;95.00;;;;;;5018017;28;20045;-58
2021/11/14 10:45:23;;;;;;;16.83;5.82;;;13.10;94.80;;;;;;5023421;28;20148;-56
2021/11/14 10:47:59;;;;;;;10.77;5.50;;;13.20;94.80;;;;;;5013422;28;20065;-57
2021/11/14 10:50:31;;;;;;;15.85;5.60;;;13.20;94.50;;;;;;5006820;28;20089;-57
2021/11/14 10:52:59;;;;;;;16.75;5.60;;;13.20;94.60;;;;;;5017514;28;20073;-57
2021/11/14 10:55:32;;;;;;;20.40;5.40;;;13.30;94.60;;;;;;5024575;28;20132;-58
2021/11/14 10:57:59;;;;;;;15.68;5.60;;;13.30;94.60;;;;;;5023305;28;20395;-57
2021/11/14 11:00:27;;;;;;;14.93;5.07;;;13.30;94.50;;;;;;5003380;28;20061;-58
2021/11/14 11:02:54;;;;;;;18.20;5.50;;;13.30;94.40;;;;;;5013450;28;21302;-57
2021/11/14 11:05:24;;;;;;;15.05;6.75;;;13.30;94.40;;;;;;5023090;28;20051;-56
2021/11/14 11:07:59;;;;;;;9.45;4.22;;;13.30;94.30;;;;;;5023394;28;20046;-58
2021/11/14 11:10:35;;;;;;;14.57;5.25;;;13.40;94.20;;;;;;5019430;28;20053;-57
2021/11/14 11:13:08;;;;;;;14.90;4.63;;;13.30;94.10;;;;;;5018634;28;20049;-52
2021/11/14 11:15:42;;;;;;;19.57;4.73;;;13.30;94.30;;;;;;4998051;28;20083;-55
2021/11/14 11:18:19;;;;;;;16.10;4.22;;;13.30;94.10;;;;;;5018512;28;20295;-54
2021/11/14 11:20:50;;;;;;;10.38;4.03;;;13.30;93.90;;;;;;5014902;28;20171;-55
2021/11/14 11:23:17;;;;;;;9.18;3.83;;;13.20;94.10;;;;;;5024045;28;20503;-55
2021/11/14 11:25:49;;;;;;;11.27;4.00;;;13.30;94.20;;;;;;5022057;28;20562;-54
2021/11/14 11:28:25;;;;;;;15.18;4.80;;;13.30;94.30;;;;;;5016614;28;20080;-56
2021/11/14 11:30:54;;;;;;;7.70;4.00;;;13.40;94.20;;;;;;5013227;28;20042;-56
2021/11/14 11:33:22;;;;;;;13.60;4.50;;;13.50;94.20;;;;;;5023158;28;20045;-52
2021/11/14 11:35:49;;;;;;;10.63;4.30;;;13.60;94.20;;;;;;5002823;28;20092;-56
2021/11/14 11:38:24;;;;;;;8.88;4.38;;;13.60;94.00;;;;;;5018372;28;20391;-55
2021/11/14 11:40:52;;;;;;;15.52;4.32;;;13.70;94.00;;;;;;5022671;28;20508;-54
2021/11/14 11:43:19;;;;;;;14.27;3.90;;;13.70;93.90;;;;;;5013030;28;20081;-53
2021/11/14 11:45:46;;;;;;;15.80;5.45;;;13.70;93.90;;;;;;5021577;28;20088;-53
2021/11/14 11:48:22;;;;;;;18.20;5.18;;;13.80;93.80;;;;;;5016142;28;20049;-55
2021/11/14 11:50:49;;;;;;;25.33;5.85;;;13.80;93.80;;;;;;5017015;28;20092;-54
2021/11/14 11:53:26;;;;;;;14.55;4.07;;;13.80;93.80;;;;;;5023416;28;20484;-57
2021/11/14 11:56:07;;;;;;;11.85;4.15;;;13.90;93.70;;;;;;5018424;28;20116;-51
2021/11/14 11:58:51;;;;;;;11.32;4.07;;;13.90;93.30;;;;;;5020752;28;20045;-57
2021/11/14 12:01:29;;;;;;;12.02;3.17;;;13.90;93.40;;;;;;5022125;28;20072;-54
2021/11/14 12:04:26;;;;;;;9.35;4.22;;;13.90;93.50;;;;;;5023651;28;20107;-54
2021/11/14 12:07:07;;;;;;;8.07;2.97;;;13.90;93.10;;;;;;5019999;28;20135;-53
2021/11/14 12:09:53;;;;;;;11.57;3.67;;;13.90;93.40;;;;;;5021628;28;20144;-52
2021/11/14 12:12:32;;;;;;;12.65;3.67;;;13.90;93.20;;;;;;5022103;28;20053;-51
2021/11/14 12:15:16;;;;;;;7.65;2.95;;;13.90;93.40;;;;;;5019604;28;20505;-54
2021/11/14 12:17:54;;;;;;;12.10;3.88;;;13.90;93.50;;;;;;5014661;28;20061;-57
2021/11/14 12:20:24;;;;;;;12.82;3.20;;;13.90;93.40;;;;;;5021554;28;20049;-55
2021/11/14 12:22:53;;;;;;;8.18;2.78;;;14.00;93.40;;;;;;5020975;28;20077;-55
2021/11/14 12:25:40;;;;;;;12.38;3.22;;;14.00;93.40;;;;;;5010074;28;20096;-52
2021/11/14 12:28:12;;;;;;;11.30;2.65;;;14.00;92.90;;;;;;5011262;28;20107;-55
2021/11/14 12:30:46;;;;;;;10.00;2.33;;;14.00;93.20;;;;;;5022574;28;20589;-53
2021/11/14 12:33:25;;;;;;;7.50;2.28;;;14.00;93.20;;;;;;5021781;28;20037;-51
2021/11/14 12:35:59;;;;;;;9.95;2.70;;;14.00;92.90;;;;;;5010613;28;20595;-50
2021/11/14 12:38:28;;;;;;;7.32;2.28;;;13.90;93.30;;;;;;5019183;28;20420;-53
2021/11/14 12:41:11;;;;;;;7.22;2.38;;;14.00;93.10;;;;;;5019182;28;20076;-53
2021/11/14 12:43:48;;;;;;;4.50;2.30;;;14.00;93.00;;;;;;5019093;28;20077;-54
2021/11/14 12:46:23;;;;;;;8.05;3.15;;;14.00;92.80;;;;;;5018595;28;20600;-54
2021/11/14 12:48:50;;;;;;;8.85;2.63;;;14.00;92.90;;;;;;5011095;28;20066;-53
2021/11/14 12:51:25;;;;;;;10.82;3.35;;;14.00;93.10;;;;;;5018099;28;20103;-51
2021/11/14 12:54:04;;;;;;;6.53;2.38;;;13.90;93.00;;;;;;5011420;28;20078;-51